Monroeville, Ohio
Current Conditions -  °F | °C
As of 5:33 PM on Friday 24 Oct 2014 (Local Time) from KPCW Reporting Station
Overcast Overcast  
Wind Chill: 63°   Ceiling: 4300
Heat Index: 63°   Visibility: 10mi
Dew Point: 46°   Wind: 7mph
Humidity: 55%   Direction: 260°W
Pressure: 29.99"   Gusts: NA
Location:  41.24°N, 82.7°W
Report Text: KPCW 242133Z AUTO 26006KT 10SM OVC043 17/08 A2999 RMK AO2 $
Loading
Personal Weather Stations






























Interactive Weather Map
Tropical Storm Tracking
New forecast layout! Learn more

10-Day Weather Forecast

Advertisements
Track Severe Weather on mobile